Terminal Aerodrome Forecast
Issued by NWS

Home | Current Version | Previous Version | Text Only | Print | Product List | Glossary On
Versions: 1 2 3 4 5 6 7 8 9 10 11 12 13 14 15 16 17 18 19 20 21 22 23 24 25 26 27 28 29 30 31 32 33 34 35 36 37 38 39 40 41 42 43 44 45 46 47
000
FTUS45 KBOU 240156 AAA
TAFBJC
TAF AMD
KBJC 240156Z 2402/2424 27010KT P6SM -TSRA BKN030CB BKN050
      TEMPO 2402/2403 27018G26KT 4SM TSRA BKN020CB
     FM240300 28007KT P6SM VCSH BKN050 BKN080
     FM240600 23005KT P6SM SCT060 SCT100
     FM240900 VRB05KT P6SM VCFG SCT006 SCT012
      TEMPO 2410/2414 3SM BR BKN006
     FM241500 12007KT P6SM SCT025 SCT080
     FM241800 25009KT P6SM BKN030 BKN050
      TEMPO 2420/2424 4SM -TSRA BKN025CB OVC050=

USA.gov is the U.S. government's official web portal to all federal, state and local government web resources and services.